sensor_id;sensor_type;location;lat;lon;timestamp;pressure;altitude;pressure_sealevel;temperature;humidity
67397;BME280;57728;50.448;18.824;2023-04-25T00:01:40;96702.88;;;12.12;73.53
67397;BME280;57728;50.448;18.824;2023-04-25T00:03:42;96682.91;;;11.85;73.98
67397;BME280;57728;50.448;18.824;2023-04-25T00:05:43;96795.06;;;12.56;73.90
67397;BME280;57728;50.448;18.824;2023-04-25T00:07:45;96773.25;;;12.56;73.84
67397;BME280;57728;50.448;18.824;2023-04-25T00:09:47;96637.09;;;11.62;73.72
67397;BME280;57728;50.448;18.824;2023-04-25T00:11:48;96584.78;;;11.34;73.60
67397;BME280;57728;50.448;18.824;2023-04-25T00:13:50;96782.50;;;12.55;73.57
67397;BME280;57728;50.448;18.824;2023-04-25T00:15:52;96641.44;;;11.58;73.69
67397;BME280;57728;50.448;18.824;2023-04-25T00:17:57;96713.78;;;12.12;73.60
67397;BME280;57728;50.448;18.824;2023-04-25T00:19:59;96784.72;;;12.53;73.69
67397;BME280;57728;50.448;18.824;2023-04-25T00:22:00;96778.41;;;12.52;73.80
67397;BME280;57728;50.448;18.824;2023-04-25T00:24:02;96634.13;;;11.58;73.54
67397;BME280;57728;50.448;18.824;2023-04-25T00:26:04;96631.91;;;11.50;73.50
67397;BME280;57728;50.448;18.824;2023-04-25T00:28:05;96723.88;;;12.01;73.67
67397;BME280;57728;50.448;18.824;2023-04-25T00:30:07;96742.97;;;12.16;74.04
67397;BME280;57728;50.448;18.824;2023-04-25T00:32:10;96746.78;;;12.15;73.95
67397;BME280;57728;50.448;18.824;2023-04-25T00:34:11;96749.53;;;12.20;73.94
67397;BME280;57728;50.448;18.824;2023-04-25T00:36:13;96670.63;;;11.67;73.94
67397;BME280;57728;50.448;18.824;2023-04-25T00:38:16;96701.19;;;11.90;73.81
67397;BME280;57728;50.448;18.824;2023-04-25T00:40:17;96698.47;;;11.85;73.81
67397;BME280;57728;50.448;18.824;2023-04-25T00:42:19;96778.69;;;12.25;74.02
67397;BME280;57728;50.448;18.824;2023-04-25T00:44:24;96778.69;;;12.20;73.87
67397;BME280;57728;50.448;18.824;2023-04-25T00:46:25;96689.69;;;11.52;73.76
67397;BME280;57728;50.448;18.824;2023-04-25T00:48:27;96738.81;;;11.78;73.92
67397;BME280;57728;50.448;18.824;2023-04-25T00:50:29;96776.50;;;12.07;73.93
67397;BME280;57728;50.448;18.824;2023-04-25T00:52:31;96787.44;;;12.12;73.80
67397;BME280;57728;50.448;18.824;2023-04-25T00:54:32;96783.34;;;12.09;73.82
67397;BME280;57728;50.448;18.824;2023-04-25T00:56:34;96743.44;;;11.82;73.29
67397;BME280;57728;50.448;18.824;2023-04-25T00:58:37;96601.00;;;10.82;73.32
67397;BME280;57728;50.448;18.824;2023-04-25T01:00:40;96750.25;;;11.75;73.24
67397;BME280;57728;50.448;18.824;2023-04-25T01:02:44;96639.19;;;11.03;73.52
67397;BME280;57728;50.448;18.824;2023-04-25T01:04:48;96784.91;;;11.90;73.53
67397;BME280;57728;50.448;18.824;2023-04-25T01:06:49;96696.22;;;11.35;73.47
67397;BME280;57728;50.448;18.824;2023-04-25T01:08:53;96629.09;;;10.93;73.58
67397;BME280;57728;50.448;18.824;2023-04-25T01:10:55;96748.03;;;11.61;73.62
67397;BME280;57728;50.448;18.824;2023-04-25T01:12:56;96729.47;;;11.53;73.33
67397;BME280;57728;50.448;18.824;2023-04-25T01:14:58;96662.84;;;11.02;73.35
67397;BME280;57728;50.448;18.824;2023-04-25T01:17:00;96774.78;;;11.69;73.42
67397;BME280;57728;50.448;18.824;2023-04-25T01:19:07;96721.28;;;11.32;73.34
67397;BME280;57728;50.448;18.824;2023-04-25T01:21:13;96792.78;;;11.76;73.69
67397;BME280;57728;50.448;18.824;2023-04-25T01:23:15;96789.53;;;11.74;73.34
67397;BME280;57728;50.448;18.824;2023-04-25T01:25:18;96752.38;;;11.47;73.44
67397;BME280;57728;50.448;18.824;2023-04-25T01:27:21;96674.28;;;10.94;73.46
67397;BME280;57728;50.448;18.824;2023-04-25T01:29:24;96778.06;;;11.66;73.50
67397;BME280;57728;50.448;18.824;2023-04-25T01:31:28;96630.34;;;10.65;73.33
67397;BME280;57728;50.448;18.824;2023-04-25T01:33:29;96764.06;;;11.42;73.46
67397;BME280;57728;50.448;18.824;2023-04-25T01:35:31;96759.38;;;11.27;73.22
67397;BME280;57728;50.448;18.824;2023-04-25T01:37:34;96774.13;;;11.31;73.19
67397;BME280;57728;50.448;18.824;2023-04-25T01:39:36;96753.63;;;11.18;73.29
67397;BME280;57728;50.448;18.824;2023-04-25T01:41:37;96797.84;;;11.41;73.39
67397;BME280;57728;50.448;18.824;2023-04-25T01:43:39;96771.88;;;11.18;73.17
67397;BME280;57728;50.448;18.824;2023-04-25T01:45:42;96738.53;;;10.95;73.56
67397;BME280;57728;50.448;18.824;2023-04-25T01:47:45;96646.53;;;10.39;73.59
67397;BME280;57728;50.448;18.824;2023-04-25T01:49:51;96597.06;;;10.05;73.56
67397;BME280;57728;50.448;18.824;2023-04-25T01:51:52;96765.84;;;11.11;73.57
67397;BME280;57728;50.448;18.824;2023-04-25T01:53:54;96807.34;;;11.33;73.82
67397;BME280;57728;50.448;18.824;2023-04-25T01:55:58;96763.66;;;11.08;73.94
67397;BME280;57728;50.448;18.824;2023-04-25T01:58:02;96765.81;;;11.00;74.11
67397;BME280;57728;50.448;18.824;2023-04-25T02:00:26;96741.81;;;10.97;74.04
67397;BME280;57728;50.448;18.824;2023-04-25T02:02:28;96776.19;;;11.14;74.00
67397;BME280;57728;50.448;18.824;2023-04-25T02:04:30;96608.78;;;10.10;73.97
67397;BME280;57728;50.448;18.824;2023-04-25T02:06:32;96804.09;;;11.36;74.31
67397;BME280;57728;50.448;18.824;2023-04-25T02:08:34;96732.53;;;10.93;74.04
67397;BME280;57728;50.448;18.824;2023-04-25T02:10:36;96796.44;;;11.28;74.13
67397;BME280;57728;50.448;18.824;2023-04-25T02:12:53;96786.06;;;11.20;73.66
67397;BME280;57728;50.448;18.824;2023-04-25T02:15:10;96783.59;;;11.18;73.66
67397;BME280;57728;50.448;18.824;2023-04-25T02:17:15;96772.13;;;11.11;73.64
67397;BME280;57728;50.448;18.824;2023-04-25T02:19:17;96824.25;;;11.35;73.50
67397;BME280;57728;50.448;18.824;2023-04-25T02:21:19;96655.16;;;10.31;73.06
67397;BME280;57728;50.448;18.824;2023-04-25T02:23:21;96777.81;;;11.05;72.92
67397;BME280;57728;50.448;18.824;2023-04-25T02:25:22;96748.00;;;10.77;72.68
67397;BME280;57728;50.448;18.824;2023-04-25T02:27:24;96682.69;;;10.35;72.92
67397;BME280;57728;50.448;18.824;2023-04-25T02:29:26;96815.13;;;11.09;72.49
67397;BME280;57728;50.448;18.824;2023-04-25T02:31:27;96821.38;;;11.05;72.47
67397;BME280;57728;50.448;18.824;2023-04-25T02:33:29;96776.81;;;10.78;72.46
67397;BME280;57728;50.448;18.824;2023-04-25T02:35:35;96818.09;;;11.02;72.64
67397;BME280;57728;50.448;18.824;2023-04-25T02:37:39;96813.16;;;10.99;72.23
67397;BME280;57728;50.448;18.824;2023-04-25T02:39:42;96673.41;;;9.98;72.30
67397;BME280;57728;50.448;18.824;2023-04-25T02:41:43;96619.06;;;9.66;72.02
67397;BME280;57728;50.448;18.824;2023-04-25T02:43:44;96740.66;;;10.40;71.94
67397;BME280;57728;50.448;18.824;2023-04-25T02:45:46;96692.16;;;9.94;71.93
67397;BME280;57728;50.448;18.824;2023-04-25T02:47:47;96812.47;;;10.72;72.15
67397;BME280;57728;50.448;18.824;2023-04-25T02:49:49;96800.84;;;10.49;71.93
67397;BME280;57728;50.448;18.824;2023-04-25T02:51:51;96631.16;;;9.48;71.71
67397;BME280;57728;50.448;18.824;2023-04-25T02:53:52;96653.16;;;9.46;71.37
67397;BME280;57728;50.448;18.824;2023-04-25T02:55:54;96708.88;;;9.81;71.43
67397;BME280;57728;50.448;18.824;2023-04-25T02:57:56;96749.84;;;10.02;71.29
67397;BME280;57728;50.448;18.824;2023-04-25T03:00:12;96734.78;;;9.89;71.37
67397;BME280;57728;50.448;18.824;2023-04-25T03:02:15;96808.66;;;10.35;71.23
67397;BME280;57728;50.448;18.824;2023-04-25T03:04:17;96817.88;;;10.34;71.37
67397;BME280;57728;50.448;18.824;2023-04-25T03:06:20;96718.94;;;9.80;71.39
67397;BME280;57728;50.448;18.824;2023-04-25T03:08:21;96660.13;;;9.37;71.22
67397;BME280;57728;50.448;18.824;2023-04-25T03:10:24;96770.28;;;10.04;71.04
67397;BME280;57728;50.448;18.824;2023-04-25T03:12:26;96765.91;;;10.03;70.88
67397;BME280;57728;50.448;18.824;2023-04-25T03:14:27;96809.34;;;10.25;71.04
67397;BME280;57728;50.448;18.824;2023-04-25T03:16:30;96728.44;;;9.78;71.13
67397;BME280;57728;50.448;18.824;2023-04-25T03:18:31;96809.88;;;10.22;71.02
67397;BME280;57728;50.448;18.824;2023-04-25T03:20:33;96817.50;;;10.25;71.13
67397;BME280;57728;50.448;18.824;2023-04-25T03:22:35;96627.22;;;9.06;71.00
67397;BME280;57728;50.448;18.824;2023-04-25T03:24:36;96809.09;;;10.27;70.95
67397;BME280;57728;50.448;18.824;2023-04-25T03:26:38;96767.81;;;10.03;70.96
67397;BME280;57728;50.448;18.824;2023-04-25T03:28:41;96759.66;;;10.03;70.63
67397;BME280;57728;50.448;18.824;2023-04-25T03:30:42;96624.00;;;9.09;70.50
67397;BME280;57728;50.448;18.824;2023-04-25T03:32:44;96799.00;;;10.22;70.90
67397;BME280;57728;50.448;18.824;2023-04-25T03:34:50;96760.78;;;9.79;70.68
67397;BME280;57728;50.448;18.824;2023-04-25T03:36:53;96755.88;;;9.76;70.56
67397;BME280;57728;50.448;18.824;2023-04-25T03:38:54;96626.25;;;8.90;70.45
67397;BME280;57728;50.448;18.824;2023-04-25T03:40:57;96581.16;;;8.62;70.47
67397;BME280;57728;50.448;18.824;2023-04-25T03:43:11;96806.41;;;10.00;70.43
67397;BME280;57728;50.448;18.824;2023-04-25T03:45:16;96822.53;;;10.11;70.34
67397;BME280;57728;50.448;18.824;2023-04-25T03:47:18;96829.91;;;10.11;70.26
67397;BME280;57728;50.448;18.824;2023-04-25T03:49:20;96827.19;;;10.11;70.12
67397;BME280;57728;50.448;18.824;2023-04-25T03:51:31;96760.38;;;9.66;69.96
67397;BME280;57728;50.448;18.824;2023-04-25T03:53:33;96636.22;;;8.84;69.63
67397;BME280;57728;50.448;18.824;2023-04-25T03:55:49;96852.41;;;10.06;69.81
67397;BME280;57728;50.448;18.824;2023-04-25T03:57:51;96706.75;;;9.28;69.59
67397;BME280;57728;50.448;18.824;2023-04-25T03:59:53;96820.59;;;10.07;69.43
67397;BME280;57728;50.448;18.824;2023-04-25T04:01:54;96755.72;;;9.61;69.20
67397;BME280;57728;50.448;18.824;2023-04-25T04:03:56;96629.84;;;8.73;69.21
67397;BME280;57728;50.448;18.824;2023-04-25T04:05:59;96834.69;;;10.04;69.20
67397;BME280;57728;50.448;18.824;2023-04-25T04:08:01;96742.81;;;9.46;68.91
67397;BME280;57728;50.448;18.824;2023-04-25T04:10:02;96684.94;;;8.96;68.86
67397;BME280;57728;50.448;18.824;2023-04-25T04:12:11;96807.84;;;9.80;69.01
67397;BME280;57728;50.448;18.824;2023-04-25T04:14:14;96836.84;;;10.02;68.89
67397;BME280;57728;50.448;18.824;2023-04-25T04:16:21;96811.88;;;9.77;69.00
67397;BME280;57728;50.448;18.824;2023-04-25T04:18:23;96774.28;;;9.69;69.14
67397;BME280;57728;50.448;18.824;2023-04-25T04:20:24;96643.03;;;8.87;68.41
67397;BME280;57728;50.448;18.824;2023-04-25T04:22:26;96813.81;;;9.82;68.37
67397;BME280;57728;50.448;18.824;2023-04-25T04:24:32;96663.91;;;8.86;68.09
67397;BME280;57728;50.448;18.824;2023-04-25T04:26:37;96627.84;;;8.64;68.11
67397;BME280;57728;50.448;18.824;2023-04-25T04:28:57;96811.63;;;9.79;68.48
67397;BME280;57728;50.448;18.824;2023-04-25T04:31:27;96818.69;;;9.80;68.14
67397;BME280;57728;50.448;18.824;2023-04-25T04:33:28;96632.97;;;8.60;68.04
67397;BME280;57728;50.448;18.824;2023-04-25T04:35:35;96680.44;;;9.07;68.11
67397;BME280;57728;50.448;18.824;2023-04-25T04:37:37;96828.03;;;9.89;67.91
67397;BME280;57728;50.448;18.824;2023-04-25T04:39:39;96829.84;;;10.06;67.81
67397;BME280;57728;50.448;18.824;2023-04-25T04:41:59;96593.59;;;8.57;67.34
67397;BME280;57728;50.448;18.824;2023-04-25T04:44:14;96696.41;;;9.25;67.60
67397;BME280;57728;50.448;18.824;2023-04-25T04:46:48;96814.91;;;10.08;67.22
67397;BME280;57728;50.448;18.824;2023-04-25T04:49:22;96829.84;;;10.06;67.24
67397;BME280;57728;50.448;18.824;2023-04-25T04:51:38;96755.91;;;9.54;67.18
67397;BME280;57728;50.448;18.824;2023-04-25T04:53:58;96806.28;;;9.89;67.17
67397;BME280;57728;50.448;18.824;2023-04-25T04:56:29;96777.34;;;9.78;66.91
67397;BME280;57728;50.448;18.824;2023-04-25T04:58:52;96728.13;;;9.47;66.92
67397;BME280;57728;50.448;18.824;2023-04-25T05:00:56;96696.41;;;9.25;66.58
67397;BME280;57728;50.448;18.824;2023-04-25T05:03:30;96738.25;;;9.52;66.76
67397;BME280;57728;50.448;18.824;2023-04-25T05:05:44;96859.94;;;10.26;66.61
67397;BME280;57728;50.448;18.824;2023-04-25T05:08:09;96815.09;;;10.02;66.50
67397;BME280;57728;50.448;18.824;2023-04-25T05:10:31;96771.38;;;9.76;66.44
67397;BME280;57728;50.448;18.824;2023-04-25T05:12:45;96793.97;;;9.81;66.21
67397;BME280;57728;50.448;18.824;2023-04-25T05:15:16;96686.94;;;9.28;66.11
67397;BME280;57728;50.448;18.824;2023-04-25T05:17:35;96713.91;;;9.35;66.03
67397;BME280;57728;50.448;18.824;2023-04-25T05:19:55;96710.56;;;9.27;65.17
67397;BME280;57728;50.448;18.824;2023-04-25T05:22:09;96833.69;;;10.10;65.48
67397;BME280;57728;50.448;18.824;2023-04-25T05:24:46;96838.53;;;10.08;65.56
67397;BME280;57728;50.448;18.824;2023-04-25T05:27:03;96640.06;;;8.88;65.67
67397;BME280;57728;50.448;18.824;2023-04-25T05:29:22;96803.91;;;9.98;65.55
67397;BME280;57728;50.448;18.824;2023-04-25T05:31:38;96806.88;;;9.96;65.46
67397;BME280;57728;50.448;18.824;2023-04-25T05:33:44;96676.78;;;9.18;65.28
67397;BME280;57728;50.448;18.824;2023-04-25T05:35:46;96690.91;;;9.20;65.23
67397;BME280;57728;50.448;18.824;2023-04-25T05:37:49;96665.19;;;9.01;65.09
67397;BME280;57728;50.448;18.824;2023-04-25T05:39:51;96821.88;;;9.99;65.21
67397;BME280;57728;50.448;18.824;2023-04-25T05:42:05;96871.91;;;10.25;65.28
67397;BME280;57728;50.448;18.824;2023-04-25T05:44:25;96796.97;;;9.80;65.00
67397;BME280;57728;50.448;18.824;2023-04-25T05:46:49;96870.81;;;10.26;65.43
67397;BME280;57728;50.448;18.824;2023-04-25T05:48:59;96720.66;;;9.32;64.97
67397;BME280;57728;50.448;18.824;2023-04-25T05:51:30;96703.41;;;9.21;64.72
67397;BME280;57728;50.448;18.824;2023-04-25T05:53:52;96867.84;;;10.28;64.89
67397;BME280;57728;50.448;18.824;2023-04-25T05:55:54;96874.66;;;10.30;65.09
67397;BME280;57728;50.448;18.824;2023-04-25T05:58:01;96801.97;;;9.93;65.00
67397;BME280;57728;50.448;18.824;2023-04-25T06:00:03;96675.53;;;9.04;64.71
67397;BME280;57728;50.448;18.824;2023-04-25T06:02:18;96847.44;;;10.25;64.76
67397;BME280;57728;50.448;18.824;2023-04-25T06:04:20;96700.88;;;9.37;64.81
67397;BME280;57728;50.448;18.824;2023-04-25T06:06:21;96868.25;;;10.42;64.86
67397;BME280;57728;50.448;18.824;2023-04-25T06:08:23;96817.25;;;10.27;65.41
67397;BME280;57728;50.448;18.824;2023-04-25T06:10:25;96862.69;;;10.59;65.52
67397;BME280;57728;50.448;18.824;2023-04-25T06:12:26;96783.41;;;10.12;64.93
67397;BME280;57728;50.448;18.824;2023-04-25T06:14:28;96837.31;;;10.48;64.50
67397;BME280;57728;50.448;18.824;2023-04-25T06:16:30;96868.78;;;10.71;64.80
67397;BME280;57728;50.448;18.824;2023-04-25T06:18:31;96826.22;;;10.27;64.18
67397;BME280;57728;50.448;18.824;2023-04-25T06:20:32;96802.81;;;10.26;64.37
67397;BME280;57728;50.448;18.824;2023-04-25T06:22:35;96823.72;;;10.48;64.40
67397;BME280;57728;50.448;18.824;2023-04-25T06:24:37;96806.75;;;10.36;63.77
67397;BME280;57728;50.448;18.824;2023-04-25T06:26:39;96860.38;;;10.73;64.10
67397;BME280;57728;50.448;18.824;2023-04-25T06:28:41;96868.84;;;10.76;63.77
67397;BME280;57728;50.448;18.824;2023-04-25T06:30:43;96868.56;;;10.78;63.87
67397;BME280;57728;50.448;18.824;2023-04-25T06:32:48;96872.16;;;10.83;64.08
67397;BME280;57728;50.448;18.824;2023-04-25T06:34:51;96714.59;;;9.79;63.31
67397;BME280;57728;50.448;18.824;2023-04-25T06:36:52;96761.94;;;10.16;62.83
67397;BME280;57728;50.448;18.824;2023-04-25T06:38:54;96870.25;;;10.84;63.06
67397;BME280;57728;50.448;18.824;2023-04-25T06:40:56;96824.84;;;10.52;62.18
67397;BME280;57728;50.448;18.824;2023-04-25T06:42:58;96670.00;;;9.48;62.52
67397;BME280;57728;50.448;18.824;2023-04-25T06:45:29;96835.25;;;10.60;62.48
67397;BME280;57728;50.448;18.824;2023-04-25T06:47:31;96796.16;;;10.39;62.41
67397;BME280;57728;50.448;18.824;2023-04-25T06:49:33;96878.78;;;10.98;62.38
67397;BME280;57728;50.448;18.824;2023-04-25T06:51:35;96816.75;;;10.62;62.36
67397;BME280;57728;50.448;18.824;2023-04-25T06:53:37;96886.53;;;11.11;62.36
67397;BME280;57728;50.448;18.824;2023-04-25T06:55:41;96844.72;;;10.95;62.10
67397;BME280;57728;50.448;18.824;2023-04-25T06:57:48;96874.34;;;11.24;61.73
67397;BME280;57728;50.448;18.824;2023-04-25T07:00:16;96677.09;;;10.14;61.93
67397;BME280;57728;50.448;18.824;2023-04-25T07:02:18;96873.41;;;11.51;61.63
67397;BME280;57728;50.448;18.824;2023-04-25T07:04:20;96785.41;;;11.02;61.07
67397;BME280;57728;50.448;18.824;2023-04-25T07:06:26;96767.38;;;10.91;61.18
67397;BME280;57728;50.448;18.824;2023-04-25T07:08:29;96785.94;;;10.99;60.95
67397;BME280;57728;50.448;18.824;2023-04-25T07:10:32;96839.31;;;11.53;60.63
67397;BME280;57728;50.448;18.824;2023-04-25T07:12:34;96803.84;;;11.38;59.92
67397;BME280;57728;50.448;18.824;2023-04-25T07:14:35;96666.16;;;10.46;59.37
67397;BME280;57728;50.448;18.824;2023-04-25T07:16:36;96865.06;;;11.83;58.99
67397;BME280;57728;50.448;18.824;2023-04-25T07:18:38;96888.81;;;11.88;58.85
67397;BME280;57728;50.448;18.824;2023-04-25T07:20:40;96698.72;;;10.79;59.47
67397;BME280;57728;50.448;18.824;2023-04-25T07:22:41;96875.16;;;11.93;59.46
67397;BME280;57728;50.448;18.824;2023-04-25T07:24:44;96855.22;;;11.77;59.61
67397;BME280;57728;50.448;18.824;2023-04-25T07:26:49;96878.16;;;11.92;59.59
67397;BME280;57728;50.448;18.824;2023-04-25T07:28:57;96700.34;;;10.80;58.77
67397;BME280;57728;50.448;18.824;2023-04-25T07:31:00;96834.72;;;11.64;58.94
67397;BME280;57728;50.448;18.824;2023-04-25T07:33:01;96733.63;;;10.92;58.17
67397;BME280;57728;50.448;18.824;2023-04-25T07:35:03;96875.13;;;11.73;57.81
67397;BME280;57728;50.448;18.824;2023-04-25T07:37:05;96836.28;;;11.45;58.22
67397;BME280;57728;50.448;18.824;2023-04-25T07:39:13;96765.25;;;11.04;58.92
67397;BME280;57728;50.448;18.824;2023-04-25T07:41:15;96853.78;;;11.59;58.83
67397;BME280;57728;50.448;18.824;2023-04-25T07:43:17;96879.78;;;11.82;58.33
67397;BME280;57728;50.448;18.824;2023-04-25T07:45:30;96715.06;;;10.84;58.44
67397;BME280;57728;50.448;18.824;2023-04-25T07:47:31;96847.84;;;11.73;58.99
67397;BME280;57728;50.448;18.824;2023-04-25T07:49:34;96871.41;;;12.04;58.17
67397;BME280;57728;50.448;18.824;2023-04-25T07:51:36;96881.28;;;12.11;58.45
67397;BME280;57728;50.448;18.824;2023-04-25T07:53:42;96757.53;;;11.38;58.33
67397;BME280;57728;50.448;18.824;2023-04-25T07:55:48;96846.34;;;12.02;57.82
67397;BME280;57728;50.448;18.824;2023-04-25T07:57:51;96851.00;;;12.12;57.37
67397;BME280;57728;50.448;18.824;2023-04-25T07:59:52;96807.25;;;11.92;57.41
67397;BME280;57728;50.448;18.824;2023-04-25T08:01:55;96887.91;;;12.46;56.12
67397;BME280;57728;50.448;18.824;2023-04-25T08:03:59;96673.25;;;11.16;55.44
67397;BME280;57728;50.448;18.824;2023-04-25T08:06:19;96810.84;;;11.97;55.24
67397;BME280;57728;50.448;18.824;2023-04-25T08:08:42;96868.78;;;12.41;54.81
67397;BME280;57728;50.448;18.824;2023-04-25T08:10:45;96760.88;;;11.76;54.83
67397;BME280;57728;50.448;18.824;2023-04-25T08:12:51;96789.00;;;11.87;55.39
67397;BME280;57728;50.448;18.824;2023-04-25T08:14:53;96886.00;;;12.62;54.63
67397;BME280;57728;50.448;18.824;2023-04-25T08:16:55;96822.94;;;12.27;55.17
67397;BME280;57728;50.448;18.824;2023-04-25T08:18:56;96865.78;;;12.63;53.53
67397;BME280;57728;50.448;18.824;2023-04-25T08:20:58;96583.31;;;10.85;52.75
67397;BME280;57728;50.448;18.824;2023-04-25T08:22:59;96833.00;;;12.52;53.87
67397;BME280;57728;50.448;18.824;2023-04-25T08:25:15;96724.59;;;11.70;53.57
67397;BME280;57728;50.448;18.824;2023-04-25T08:27:18;96866.03;;;12.77;53.31
67397;BME280;57728;50.448;18.824;2023-04-25T08:29:21;96861.13;;;12.99;53.94
67397;BME280;57728;50.448;18.824;2023-04-25T08:31:25;96881.88;;;13.16;52.47
67397;BME280;57728;50.448;18.824;2023-04-25T08:33:36;96880.22;;;13.20;51.69
67397;BME280;57728;50.448;18.824;2023-04-25T08:35:47;96713.78;;;12.22;52.43
67397;BME280;57728;50.448;18.824;2023-04-25T08:37:49;96806.53;;;12.84;51.51
67397;BME280;57728;50.448;18.824;2023-04-25T08:39:51;96718.69;;;12.25;50.92
67397;BME280;57728;50.448;18.824;2023-04-25T08:42:06;96843.06;;;13.14;51.65
67397;BME280;57728;50.448;18.824;2023-04-25T08:44:10;96829.69;;;13.07;51.75
67397;BME280;57728;50.448;18.824;2023-04-25T08:46:17;96882.66;;;13.32;50.96
67397;BME280;57728;50.448;18.824;2023-04-25T08:48:48;96881.88;;;13.36;50.60
67397;BME280;57728;50.448;18.824;2023-04-25T08:50:54;96829.94;;;13.21;51.71
67397;BME280;57728;50.448;18.824;2023-04-25T08:53:04;96882.91;;;13.46;50.65
67397;BME280;57728;50.448;18.824;2023-04-25T08:55:12;96850.97;;;13.31;50.99
67397;BME280;57728;50.448;18.824;2023-04-25T08:57:15;96825.84;;;13.23;51.14
67397;BME280;57728;50.448;18.824;2023-04-25T08:59:19;96815.75;;;13.14;50.64
67397;BME280;57728;50.448;18.824;2023-04-25T09:01:22;96854.50;;;13.52;50.89
67397;BME280;57728;50.448;18.824;2023-04-25T09:03:27;96732.22;;;12.82;50.84
67397;BME280;57728;50.448;18.824;2023-04-25T09:05:33;96733.91;;;12.72;49.89
67397;BME280;57728;50.448;18.824;2023-04-25T09:07:35;96695.72;;;12.47;49.40
67397;BME280;57728;50.448;18.824;2023-04-25T09:09:36;96725.19;;;12.60;49.34
67397;BME280;57728;50.448;18.824;2023-04-25T09:11:38;96887.81;;;13.49;48.91
67397;BME280;57728;50.448;18.824;2023-04-25T09:13:43;96878.53;;;13.34;48.99
67397;BME280;57728;50.448;18.824;2023-04-25T09:15:57;96887.59;;;13.30;49.05
67397;BME280;57728;50.448;18.824;2023-04-25T09:18:31;96848.53;;;13.03;49.08
67397;BME280;57728;50.448;18.824;2023-04-25T09:20:42;96881.03;;;13.41;48.78
67397;BME280;57728;50.448;18.824;2023-04-25T09:22:46;96837.00;;;13.43;49.50
67397;BME280;57728;50.448;18.824;2023-04-25T09:24:49;96872.16;;;13.80;47.68
67397;BME280;57728;50.448;18.824;2023-04-25T09:26:52;96856.22;;;13.92;45.27
67397;BME280;57728;50.448;18.824;2023-04-25T09:29:07;96875.09;;;13.94;44.55
67397;BME280;57728;50.448;18.824;2023-04-25T09:31:11;96817.22;;;13.71;45.46
67397;BME280;57728;50.448;18.824;2023-04-25T09:33:18;96811.66;;;13.87;44.11
67397;BME280;57728;50.448;18.824;2023-04-25T09:35:26;96775.06;;;13.78;43.51
67397;BME280;57728;50.448;18.824;2023-04-25T09:37:30;96848.22;;;14.46;44.02
67397;BME280;57728;50.448;18.824;2023-04-25T09:40:07;96770.69;;;14.16;43.19
67397;BME280;57728;50.448;18.824;2023-04-25T09:42:24;96850.25;;;14.75;43.13
67397;BME280;57728;50.448;18.824;2023-04-25T09:44:29;96812.19;;;14.73;42.60
67397;BME280;57728;50.448;18.824;2023-04-25T09:46:34;96732.56;;;14.30;42.02
67397;BME280;57728;50.448;18.824;2023-04-25T09:48:49;96881.41;;;15.13;40.96
67397;BME280;57728;50.448;18.824;2023-04-25T09:51:03;96886.72;;;15.00;40.64
67397;BME280;57728;50.448;18.824;2023-04-25T09:53:12;96883.69;;;15.01;41.32
67397;BME280;57728;50.448;18.824;2023-04-25T09:55:35;96855.78;;;14.99;41.63
67397;BME280;57728;50.448;18.824;2023-04-25T09:57:38;96819.19;;;14.85;40.76
67397;BME280;57728;50.448;18.824;2023-04-25T09:59:46;96876.50;;;15.40;41.67
67397;BME280;57728;50.448;18.824;2023-04-25T10:01:51;96831.41;;;15.27;42.12
67397;BME280;57728;50.448;18.824;2023-04-25T10:04:05;96765.81;;;15.06;41.17
67397;BME280;57728;50.448;18.824;2023-04-25T10:06:37;96888.16;;;15.75;40.99
67397;BME280;57728;50.448;18.824;2023-04-25T10:08:41;96843.94;;;15.57;40.86
67397;BME280;57728;50.448;18.824;2023-04-25T10:10:48;96737.00;;;14.85;40.16
67397;BME280;57728;50.448;18.824;2023-04-25T10:12:52;96840.59;;;15.36;41.39
67397;BME280;57728;50.448;18.824;2023-04-25T10:14:54;96882.78;;;15.40;41.08
67397;BME280;57728;50.448;18.824;2023-04-25T10:17:00;96823.13;;;14.73;40.48
67397;BME280;57728;50.448;18.824;2023-04-25T10:19:02;96862.69;;;14.91;41.27
67397;BME280;57728;50.448;18.824;2023-04-25T10:21:05;96839.13;;;14.56;40.92
67397;BME280;57728;50.448;18.824;2023-04-25T10:23:13;96734.25;;;13.86;41.43
67397;BME280;57728;50.448;18.824;2023-04-25T10:25:18;96735.00;;;13.97;41.66
67397;BME280;57728;50.448;18.824;2023-04-25T10:27:19;96816.16;;;14.52;41.91
67397;BME280;57728;50.448;18.824;2023-04-25T10:29:26;96735.97;;;14.17;41.72
67397;BME280;57728;50.448;18.824;2023-04-25T10:31:29;96817.66;;;14.73;39.90
67397;BME280;57728;50.448;18.824;2023-04-25T10:33:38;96886.50;;;14.96;40.18
67397;BME280;57728;50.448;18.824;2023-04-25T10:35:44;96824.13;;;14.48;40.01
67397;BME280;57728;50.448;18.824;2023-04-25T10:38:13;96869.13;;;14.76;40.42
67397;BME280;57728;50.448;18.824;2023-04-25T10:40:21;96833.47;;;14.42;40.60
67397;BME280;57728;50.448;18.824;2023-04-25T10:42:24;96861.63;;;14.48;41.46
67397;BME280;57728;50.448;18.824;2023-04-25T10:44:29;96706.94;;;13.36;41.44
67397;BME280;57728;50.448;18.824;2023-04-25T10:46:32;96877.69;;;14.20;41.36
67397;BME280;57728;50.448;18.824;2023-04-25T10:48:36;96840.38;;;13.89;41.74
67397;BME280;57728;50.448;18.824;2023-04-25T10:50:38;96879.66;;;14.09;41.81
67397;BME280;57728;50.448;18.824;2023-04-25T10:52:40;96884.06;;;14.05;42.16
67397;BME280;57728;50.448;18.824;2023-04-25T10:56:48;96869.59;;;13.99;42.10
67397;BME280;57728;50.448;18.824;2023-04-25T10:58:51;96821.41;;;13.53;41.65
67397;BME280;57728;50.448;18.824;2023-04-25T11:01:04;96812.41;;;13.48;41.92
67397;BME280;57728;50.448;18.824;2023-04-25T11:03:06;96821.13;;;13.50;41.91
67397;BME280;57728;50.448;18.824;2023-04-25T11:05:08;96793.00;;;13.34;42.31